sensor_id;sensor_type;location;lat;lon;timestamp;temperature;humidity
42031;DHT22;27709;52.036;5.906;2023-02-26T00:01:20;-0.20;99.90
42031;DHT22;27709;52.036;5.906;2023-02-26T00:03:57;-0.30;99.90
42031;DHT22;27709;52.036;5.906;2023-02-26T00:06:24;-0.40;99.90
42031;DHT22;27709;52.036;5.906;2023-02-26T00:08:50;-0.40;99.90
42031;DHT22;27709;52.036;5.906;2023-02-26T00:11:16;-0.40;99.90
42031;DHT22;27709;52.036;5.906;2023-02-26T00:13:43;-0.40;99.90
42031;DHT22;27709;52.036;5.906;2023-02-26T00:16:31;-0.50;99.90
42031;DHT22;27709;52.036;5.906;2023-02-26T00:18:59;-0.50;99.90
42031;DHT22;27709;52.036;5.906;2023-02-26T00:21:27;-0.50;99.90
42031;DHT22;27709;52.036;5.906;2023-02-26T00:23:53;-0.50;99.90
42031;DHT22;27709;52.036;5.906;2023-02-26T00:26:19;-0.50;99.90
42031;DHT22;27709;52.036;5.906;2023-02-26T00:28:46;-0.50;99.90
42031;DHT22;27709;52.036;5.906;2023-02-26T00:31:15;-0.50;99.90
42031;DHT22;27709;52.036;5.906;2023-02-26T00:33:41;-0.40;99.90
42031;DHT22;27709;52.036;5.906;2023-02-26T00:38:39;-0.40;99.90
42031;DHT22;27709;52.036;5.906;2023-02-26T00:41:07;-0.40;99.90
42031;DHT22;27709;52.036;5.906;2023-02-26T00:43:33;-0.30;99.90
42031;DHT22;27709;52.036;5.906;2023-02-26T00:48:47;-0.30;99.90
42031;DHT22;27709;52.036;5.906;2023-02-26T00:51:30;-0.30;99.90
42031;DHT22;27709;52.036;5.906;2023-02-26T00:54:04;-0.40;99.90
42031;DHT22;27709;52.036;5.906;2023-02-26T00:56:33;-0.40;99.90
42031;DHT22;27709;52.036;5.906;2023-02-26T00:58:59;-0.40;99.90
42031;DHT22;27709;52.036;5.906;2023-02-26T01:01:24;-0.30;99.90
42031;DHT22;27709;52.036;5.906;2023-02-26T01:03:50;-0.30;99.90
42031;DHT22;27709;52.036;5.906;2023-02-26T01:06:18;-0.30;99.90
42031;DHT22;27709;52.036;5.906;2023-02-26T01:08:53;-0.30;99.90
42031;DHT22;27709;52.036;5.906;2023-02-26T01:11:24;-0.30;99.90
42031;DHT22;27709;52.036;5.906;2023-02-26T01:13:49;-0.20;99.90
42031;DHT22;27709;52.036;5.906;2023-02-26T01:16:20;-0.20;99.90
42031;DHT22;27709;52.036;5.906;2023-02-26T01:18:52;-0.20;99.90
42031;DHT22;27709;52.036;5.906;2023-02-26T01:21:30;-0.20;99.90
42031;DHT22;27709;52.036;5.906;2023-02-26T01:23:58;-0.20;99.90
42031;DHT22;27709;52.036;5.906;2023-02-26T01:26:26;-0.20;99.90
42031;DHT22;27709;52.036;5.906;2023-02-26T01:28:53;-0.20;99.90
42031;DHT22;27709;52.036;5.906;2023-02-26T01:37:26;-0.20;99.90
42031;DHT22;27709;52.036;5.906;2023-02-26T01:42:42;-0.30;99.90
42031;DHT22;27709;52.036;5.906;2023-02-26T01:45:16;-0.40;99.90
42031;DHT22;27709;52.036;5.906;2023-02-26T01:47:58;-0.40;99.90
42031;DHT22;27709;52.036;5.906;2023-02-26T01:50:26;-0.50;99.90
42031;DHT22;27709;52.036;5.906;2023-02-26T01:53:22;-0.50;99.90
42031;DHT22;27709;52.036;5.906;2023-02-26T01:55:57;-0.60;99.90
42031;DHT22;27709;52.036;5.906;2023-02-26T01:58:25;-0.60;99.90
42031;DHT22;27709;52.036;5.906;2023-02-26T02:00:52;-0.70;99.90
42031;DHT22;27709;52.036;5.906;2023-02-26T02:03:19;-0.70;99.90
42031;DHT22;27709;52.036;5.906;2023-02-26T02:05:53;-0.70;99.90
42031;DHT22;27709;52.036;5.906;2023-02-26T02:08:20;-0.70;99.90
42031;DHT22;27709;52.036;5.906;2023-02-26T02:10:47;-0.80;99.90
42031;DHT22;27709;52.036;5.906;2023-02-26T02:13:24;-0.80;99.90
42031;DHT22;27709;52.036;5.906;2023-02-26T02:18:42;-0.90;99.90
42031;DHT22;27709;52.036;5.906;2023-02-26T02:24:13;-0.80;99.90
42031;DHT22;27709;52.036;5.906;2023-02-26T02:26:59;-0.90;99.90
42031;DHT22;27709;52.036;5.906;2023-02-26T02:30:01;-0.90;99.90
42031;DHT22;27709;52.036;5.906;2023-02-26T02:32:34;-0.90;99.90
42031;DHT22;27709;52.036;5.906;2023-02-26T02:35:15;-0.90;99.90
42031;DHT22;27709;52.036;5.906;2023-02-26T02:37:59;-0.90;99.90
42031;DHT22;27709;52.036;5.906;2023-02-26T02:40:31;-0.90;99.90
42031;DHT22;27709;52.036;5.906;2023-02-26T02:42:59;-0.90;99.90
42031;DHT22;27709;52.036;5.906;2023-02-26T02:45:36;-1.00;99.90
42031;DHT22;27709;52.036;5.906;2023-02-26T02:48:09;-0.90;99.90
42031;DHT22;27709;52.036;5.906;2023-02-26T02:50:42;-0.90;99.90
42031;DHT22;27709;52.036;5.906;2023-02-26T02:55:42;-0.90;99.90
42031;DHT22;27709;52.036;5.906;2023-02-26T02:58:13;-1.00;99.90
42031;DHT22;27709;52.036;5.906;2023-02-26T03:00:43;-1.00;99.90
42031;DHT22;27709;52.036;5.906;2023-02-26T03:03:56;-1.00;99.90
42031;DHT22;27709;52.036;5.906;2023-02-26T03:06:02;-1.00;99.90
42031;DHT22;27709;52.036;5.906;2023-02-26T03:08:32;-1.00;99.90
42031;DHT22;27709;52.036;5.906;2023-02-26T03:10:58;-1.10;99.90
42031;DHT22;27709;52.036;5.906;2023-02-26T03:13:24;-1.10;99.90
42031;DHT22;27709;52.036;5.906;2023-02-26T03:16:30;-1.10;99.90
42031;DHT22;27709;52.036;5.906;2023-02-26T03:22:04;-1.00;99.90
42031;DHT22;27709;52.036;5.906;2023-02-26T03:24:47;-1.00;99.90
42031;DHT22;27709;52.036;5.906;2023-02-26T03:27:30;-1.00;99.90
42031;DHT22;27709;52.036;5.906;2023-02-26T03:30:30;-0.90;99.90
42031;DHT22;27709;52.036;5.906;2023-02-26T03:36:36;-0.90;99.90
42031;DHT22;27709;52.036;5.906;2023-02-26T03:38:48;-0.90;99.90
42031;DHT22;27709;52.036;5.906;2023-02-26T03:41:37;-1.00;99.90
42031;DHT22;27709;52.036;5.906;2023-02-26T03:44:28;-1.00;99.90
42031;DHT22;27709;52.036;5.906;2023-02-26T03:46:57;-1.00;99.90
42031;DHT22;27709;52.036;5.906;2023-02-26T03:49:31;-1.00;99.90
42031;DHT22;27709;52.036;5.906;2023-02-26T03:52:00;-1.00;99.90
42031;DHT22;27709;52.036;5.906;2023-02-26T03:54:31;-1.00;99.90
42031;DHT22;27709;52.036;5.906;2023-02-26T03:56:57;-1.00;99.90
42031;DHT22;27709;52.036;5.906;2023-02-26T03:59:23;-1.10;99.90
42031;DHT22;27709;52.036;5.906;2023-02-26T04:02:02;-1.10;99.90
42031;DHT22;27709;52.036;5.906;2023-02-26T04:04:52;-1.10;99.90
42031;DHT22;27709;52.036;5.906;2023-02-26T04:07:19;-1.10;99.90
42031;DHT22;27709;52.036;5.906;2023-02-26T04:09:47;-1.20;99.90
42031;DHT22;27709;52.036;5.906;2023-02-26T04:12:13;-1.20;99.90
42031;DHT22;27709;52.036;5.906;2023-02-26T04:14:39;-1.30;99.90
42031;DHT22;27709;52.036;5.906;2023-02-26T04:17:05;-1.30;99.90
42031;DHT22;27709;52.036;5.906;2023-02-26T04:19:30;-1.30;99.90
42031;DHT22;27709;52.036;5.906;2023-02-26T04:21:56;-1.30;99.90
42031;DHT22;27709;52.036;5.906;2023-02-26T04:24:22;-1.30;99.90
42031;DHT22;27709;52.036;5.906;2023-02-26T04:26:47;-1.30;99.90
42031;DHT22;27709;52.036;5.906;2023-02-26T04:29:13;-1.30;99.90
42031;DHT22;27709;52.036;5.906;2023-02-26T04:31:38;-1.30;99.90
42031;DHT22;27709;52.036;5.906;2023-02-26T04:34:04;-1.30;99.90
42031;DHT22;27709;52.036;5.906;2023-02-26T04:36:30;-1.30;99.90
42031;DHT22;27709;52.036;5.906;2023-02-26T04:38:55;-1.30;99.90
42031;DHT22;27709;52.036;5.906;2023-02-26T04:41:21;-1.30;99.90
42031;DHT22;27709;52.036;5.906;2023-02-26T04:43:47;-1.20;99.90
42031;DHT22;27709;52.036;5.906;2023-02-26T04:46:12;-1.20;99.90
42031;DHT22;27709;52.036;5.906;2023-02-26T04:48:38;-1.20;99.90
42031;DHT22;27709;52.036;5.906;2023-02-26T04:51:03;-1.20;99.90
42031;DHT22;27709;52.036;5.906;2023-02-26T04:53:29;-1.30;99.90
42031;DHT22;27709;52.036;5.906;2023-02-26T04:55:56;-1.30;99.90
42031;DHT22;27709;52.036;5.906;2023-02-26T04:58:23;-1.30;99.90
42031;DHT22;27709;52.036;5.906;2023-02-26T05:00:51;-1.20;99.90
42031;DHT22;27709;52.036;5.906;2023-02-26T05:03:18;-1.20;99.90
42031;DHT22;27709;52.036;5.906;2023-02-26T05:05:46;-1.20;99.90
42031;DHT22;27709;52.036;5.906;2023-02-26T05:08:11;-1.20;99.90
42031;DHT22;27709;52.036;5.906;2023-02-26T05:10:40;-1.20;99.90
42031;DHT22;27709;52.036;5.906;2023-02-26T05:13:06;-1.20;99.90
42031;DHT22;27709;52.036;5.906;2023-02-26T05:15:34;-1.20;99.90
42031;DHT22;27709;52.036;5.906;2023-02-26T05:18:01;-1.20;99.90
42031;DHT22;27709;52.036;5.906;2023-02-26T05:20:28;-1.10;99.90
42031;DHT22;27709;52.036;5.906;2023-02-26T05:22:54;-1.10;99.90
42031;DHT22;27709;52.036;5.906;2023-02-26T05:25:19;-1.10;99.90
42031;DHT22;27709;52.036;5.906;2023-02-26T05:27:47;-1.10;99.90
42031;DHT22;27709;52.036;5.906;2023-02-26T05:30:14;-1.10;99.90
42031;DHT22;27709;52.036;5.906;2023-02-26T05:32:40;-1.10;99.90
42031;DHT22;27709;52.036;5.906;2023-02-26T05:35:08;-1.20;99.90
42031;DHT22;27709;52.036;5.906;2023-02-26T05:37:34;-1.20;99.90
42031;DHT22;27709;52.036;5.906;2023-02-26T05:40:00;-1.20;99.90
42031;DHT22;27709;52.036;5.906;2023-02-26T05:42:25;-1.20;99.90
42031;DHT22;27709;52.036;5.906;2023-02-26T05:44:51;-1.20;99.90
42031;DHT22;27709;52.036;5.906;2023-02-26T05:47:18;-1.20;99.90
42031;DHT22;27709;52.036;5.906;2023-02-26T05:49:43;-1.20;99.90
42031;DHT22;27709;52.036;5.906;2023-02-26T05:52:09;-1.20;99.90
42031;DHT22;27709;52.036;5.906;2023-02-26T05:54:34;-1.20;99.90
42031;DHT22;27709;52.036;5.906;2023-02-26T05:57:00;-1.20;99.90
42031;DHT22;27709;52.036;5.906;2023-02-26T05:59:26;-1.20;99.90
42031;DHT22;27709;52.036;5.906;2023-02-26T06:01:51;-1.20;99.90
42031;DHT22;27709;52.036;5.906;2023-02-26T06:04:17;-1.20;99.90
42031;DHT22;27709;52.036;5.906;2023-02-26T06:06:42;-1.20;99.90
42031;DHT22;27709;52.036;5.906;2023-02-26T06:09:08;-1.20;99.90
42031;DHT22;27709;52.036;5.906;2023-02-26T06:11:34;-1.20;99.90
42031;DHT22;27709;52.036;5.906;2023-02-26T06:13:59;-1.20;99.90
42031;DHT22;27709;52.036;5.906;2023-02-26T06:16:25;-1.20;99.90
42031;DHT22;27709;52.036;5.906;2023-02-26T06:18:51;-1.20;99.90
42031;DHT22;27709;52.036;5.906;2023-02-26T06:21:17;-1.20;99.90
42031;DHT22;27709;52.036;5.906;2023-02-26T06:23:43;-1.20;99.90
42031;DHT22;27709;52.036;5.906;2023-02-26T06:26:09;-1.10;99.90
42031;DHT22;27709;52.036;5.906;2023-02-26T06:28:34;-1.10;99.90
42031;DHT22;27709;52.036;5.906;2023-02-26T06:31:00;-1.10;99.90
42031;DHT22;27709;52.036;5.906;2023-02-26T06:33:26;-1.10;99.90
42031;DHT22;27709;52.036;5.906;2023-02-26T06:35:51;-1.10;99.90
42031;DHT22;27709;52.036;5.906;2023-02-26T06:38:17;-1.00;99.90
42031;DHT22;27709;52.036;5.906;2023-02-26T06:40:43;-1.00;99.90
42031;DHT22;27709;52.036;5.906;2023-02-26T06:43:09;-1.00;99.90
42031;DHT22;27709;52.036;5.906;2023-02-26T06:45:35;-0.90;99.90
42031;DHT22;27709;52.036;5.906;2023-02-26T06:48:00;-0.90;99.90
42031;DHT22;27709;52.036;5.906;2023-02-26T06:50:26;-0.90;99.90
42031;DHT22;27709;52.036;5.906;2023-02-26T06:52:52;-0.90;99.90
42031;DHT22;27709;52.036;5.906;2023-02-26T06:55:18;-0.80;99.90
42031;DHT22;27709;52.036;5.906;2023-02-26T06:57:46;-0.80;99.90
42031;DHT22;27709;52.036;5.906;2023-02-26T07:00:12;-0.70;99.90
42031;DHT22;27709;52.036;5.906;2023-02-26T07:02:37;-0.50;99.90
42031;DHT22;27709;52.036;5.906;2023-02-26T07:05:03;-0.30;99.90
42031;DHT22;27709;52.036;5.906;2023-02-26T07:07:29;-0.20;99.90
42031;DHT22;27709;52.036;5.906;2023-02-26T07:09:56;-0.10;99.90
42031;DHT22;27709;52.036;5.906;2023-02-26T07:12:22;0.10;99.90
42031;DHT22;27709;52.036;5.906;2023-02-26T07:14:47;0.20;99.90
42031;DHT22;27709;52.036;5.906;2023-02-26T07:17:13;0.30;99.90
42031;DHT22;27709;52.036;5.906;2023-02-26T07:19:48;0.50;99.90
42031;DHT22;27709;52.036;5.906;2023-02-26T07:22:15;0.50;99.90
42031;DHT22;27709;52.036;5.906;2023-02-26T07:24:41;0.50;99.90
42031;DHT22;27709;52.036;5.906;2023-02-26T07:27:07;0.50;99.90
42031;DHT22;27709;52.036;5.906;2023-02-26T07:29:33;0.40;99.90
42031;DHT22;27709;52.036;5.906;2023-02-26T07:31:58;0.40;99.90
42031;DHT22;27709;52.036;5.906;2023-02-26T07:34:24;0.40;99.90
42031;DHT22;27709;52.036;5.906;2023-02-26T07:36:51;0.40;99.90
42031;DHT22;27709;52.036;5.906;2023-02-26T07:39:16;0.50;99.90
42031;DHT22;27709;52.036;5.906;2023-02-26T07:41:42;0.50;99.90
42031;DHT22;27709;52.036;5.906;2023-02-26T07:44:07;0.50;99.90
42031;DHT22;27709;52.036;5.906;2023-02-26T07:46:33;0.70;99.90
42031;DHT22;27709;52.036;5.906;2023-02-26T07:48:58;0.90;99.90
42031;DHT22;27709;52.036;5.906;2023-02-26T07:51:24;1.20;99.90
42031;DHT22;27709;52.036;5.906;2023-02-26T07:53:52;1.60;99.90
42031;DHT22;27709;52.036;5.906;2023-02-26T07:56:19;1.90;99.90
42031;DHT22;27709;52.036;5.906;2023-02-26T07:58:45;2.20;99.90
42031;DHT22;27709;52.036;5.906;2023-02-26T08:01:10;2.40;99.90
42031;DHT22;27709;52.036;5.906;2023-02-26T08:03:36;2.50;99.90
42031;DHT22;27709;52.036;5.906;2023-02-26T08:06:01;2.50;99.90
42031;DHT22;27709;52.036;5.906;2023-02-26T08:08:28;2.60;99.90
42031;DHT22;27709;52.036;5.906;2023-02-26T08:10:53;2.70;99.90
42031;DHT22;27709;52.036;5.906;2023-02-26T08:13:19;2.90;99.90
42031;DHT22;27709;52.036;5.906;2023-02-26T08:15:46;3.10;99.90
42031;DHT22;27709;52.036;5.906;2023-02-26T08:18:12;3.40;99.90
42031;DHT22;27709;52.036;5.906;2023-02-26T08:20:37;3.60;99.90
42031;DHT22;27709;52.036;5.906;2023-02-26T08:23:03;3.80;99.90
42031;DHT22;27709;52.036;5.906;2023-02-26T08:25:28;4.10;99.90
42031;DHT22;27709;52.036;5.906;2023-02-26T08:27:54;4.30;99.70
42031;DHT22;27709;52.036;5.906;2023-02-26T08:30:22;4.50;99.90
42031;DHT22;27709;52.036;5.906;2023-02-26T08:32:47;4.80;99.40
42031;DHT22;27709;52.036;5.906;2023-02-26T08:35:14;5.00;99.60
42031;DHT22;27709;52.036;5.906;2023-02-26T08:37:40;5.20;99.30
42031;DHT22;27709;52.036;5.906;2023-02-26T08:40:09;5.40;98.10
42031;DHT22;27709;52.036;5.906;2023-02-26T08:42:35;5.60;98.20
42031;DHT22;27709;52.036;5.906;2023-02-26T08:45:00;5.70;96.60
42031;DHT22;27709;52.036;5.906;2023-02-26T08:47:26;5.60;97.10
42031;DHT22;27709;52.036;5.906;2023-02-26T08:49:51;5.70;96.40
42031;DHT22;27709;52.036;5.906;2023-02-26T08:52:18;5.70;96.20
42031;DHT22;27709;52.036;5.906;2023-02-26T08:54:43;5.60;96.40
42031;DHT22;27709;52.036;5.906;2023-02-26T08:57:09;5.60;95.80
42031;DHT22;27709;52.036;5.906;2023-02-26T08:59:34;5.50;96.00
42031;DHT22;27709;52.036;5.906;2023-02-26T09:02:00;5.40;95.80
42031;DHT22;27709;52.036;5.906;2023-02-26T09:04:28;5.50;95.70
42031;DHT22;27709;52.036;5.906;2023-02-26T09:06:58;5.60;95.40
42031;DHT22;27709;52.036;5.906;2023-02-26T09:09:23;5.70;95.80
42031;DHT22;27709;52.036;5.906;2023-02-26T09:11:49;5.70;94.60
42031;DHT22;27709;52.036;5.906;2023-02-26T09:14:14;5.80;95.10
42031;DHT22;27709;52.036;5.906;2023-02-26T09:16:40;5.80;94.60
42031;DHT22;27709;52.036;5.906;2023-02-26T09:19:06;5.80;94.40
42031;DHT22;27709;52.036;5.906;2023-02-26T09:21:32;5.80;93.20
42031;DHT22;27709;52.036;5.906;2023-02-26T09:23:59;5.90;93.60
42031;DHT22;27709;52.036;5.906;2023-02-26T09:26:25;5.90;93.40
42031;DHT22;27709;52.036;5.906;2023-02-26T09:28:50;6.00;93.60
42031;DHT22;27709;52.036;5.906;2023-02-26T09:31:16;6.20;93.30
42031;DHT22;27709;52.036;5.906;2023-02-26T09:33:43;6.20;91.80
42031;DHT22;27709;52.036;5.906;2023-02-26T09:36:09;6.10;90.80
42031;DHT22;27709;52.036;5.906;2023-02-26T09:38:34;5.90;90.60
42031;DHT22;27709;52.036;5.906;2023-02-26T09:41:22;5.80;90.30
42031;DHT22;27709;52.036;5.906;2023-02-26T09:51:47;5.80;88.80
42031;DHT22;27709;52.036;5.906;2023-02-26T09:54:21;5.80;90.50
42031;DHT22;27709;52.036;5.906;2023-02-26T09:56:49;5.90;91.20
42031;DHT22;27709;52.036;5.906;2023-02-26T09:59:15;6.10;91.00
42031;DHT22;27709;52.036;5.906;2023-02-26T10:02:15;6.20;90.30
42031;DHT22;27709;52.036;5.906;2023-02-26T10:04:50;6.40;90.10
42031;DHT22;27709;52.036;5.906;2023-02-26T10:12:40;6.60;88.90
42031;DHT22;27709;52.036;5.906;2023-02-26T10:15:17;6.70;86.90
42031;DHT22;27709;52.036;5.906;2023-02-26T10:18:05;6.80;88.00
42031;DHT22;27709;52.036;5.906;2023-02-26T10:23:27;7.00;84.50
42031;DHT22;27709;52.036;5.906;2023-02-26T10:26:04;7.10;84.60
42031;DHT22;27709;52.036;5.906;2023-02-26T10:36:41;7.00;84.20
42031;DHT22;27709;52.036;5.906;2023-02-26T10:39:23;7.30;82.40
42031;DHT22;27709;52.036;5.906;2023-02-26T10:41:51;7.30;82.50
42031;DHT22;27709;52.036;5.906;2023-02-26T10:44:29;7.40;80.70
42031;DHT22;27709;52.036;5.906;2023-02-26T10:47:36;7.50;78.80
42031;DHT22;27709;52.036;5.906;2023-02-26T10:50:14;7.70;80.20
42031;DHT22;27709;52.036;5.906;2023-02-26T10:52:43;7.60;79.00
42031;DHT22;27709;52.036;5.906;2023-02-26T10:55:25;7.60;76.90
42031;DHT22;27709;52.036;5.906;2023-02-26T11:00:41;7.20;77.40
42031;DHT22;27709;52.036;5.906;2023-02-26T11:03:09;7.00;78.20
42031;DHT22;27709;52.036;5.906;2023-02-26T11:05:38;6.80;77.80
42031;DHT22;27709;52.036;5.906;2023-02-26T11:08:10;6.60;79.60
42031;DHT22;27709;52.036;5.906;2023-02-26T11:10:47;6.70;79.50
42031;DHT22;27709;52.036;5.906;2023-02-26T11:13:13;6.80;81.50
42031;DHT22;27709;52.036;5.906;2023-02-26T11:15:38;7.00;82.20
42031;DHT22;27709;52.036;5.906;2023-02-26T11:18:04;7.30;82.40
42031;DHT22;27709;52.036;5.906;2023-02-26T11:20:41;7.50;78.90
42031;DHT22;27709;52.036;5.906;2023-02-26T11:23:19;7.50;78.20
42031;DHT22;27709;52.036;5.906;2023-02-26T11:25:46;7.30;76.30
42031;DHT22;27709;52.036;5.906;2023-02-26T11:28:22;7.10;79.50
42031;DHT22;27709;52.036;5.906;2023-02-26T11:30:50;6.80;79.30
42031;DHT22;27709;52.036;5.906;2023-02-26T11:33:27;6.60;77.50
42031;DHT22;27709;52.036;5.906;2023-02-26T11:35:58;6.60;78.50
42031;DHT22;27709;52.036;5.906;2023-02-26T11:38:25;6.70;79.70
42031;DHT22;27709;52.036;5.906;2023-02-26T11:40:55;6.70;78.90
42031;DHT22;27709;52.036;5.906;2023-02-26T11:43:22;6.70;79.20
42031;DHT22;27709;52.036;5.906;2023-02-26T11:45:54;6.70;79.00
42031;DHT22;27709;52.036;5.906;2023-02-26T11:48:25;6.90;80.70
42031;DHT22;27709;52.036;5.906;2023-02-26T11:51:00;7.10;79.60
42031;DHT22;27709;52.036;5.906;2023-02-26T11:53:33;7.10;78.00
42031;DHT22;27709;52.036;5.906;2023-02-26T11:56:22;7.00;78.40
42031;DHT22;27709;52.036;5.906;2023-02-26T11:58:51;7.00;79.00
42031;DHT22;27709;52.036;5.906;2023-02-26T12:01:17;7.10;80.70
42031;DHT22;27709;52.036;5.906;2023-02-26T12:03:47;7.20;78.50
42031;DHT22;27709;52.036;5.906;2023-02-26T12:06:16;7.30;78.80
42031;DHT22;27709;52.036;5.906;2023-02-26T12:08:43;7.30;75.20
42031;DHT22;27709;52.036;5.906;2023-02-26T12:20:10;7.20;79.00
42031;DHT22;27709;52.036;5.906;2023-02-26T12:39:52;7.10;81.50
42031;DHT22;27709;52.036;5.906;2023-02-26T12:42:39;7.10;79.50
42031;DHT22;27709;52.036;5.906;2023-02-26T12:50:48;7.00;79.90
42031;DHT22;27709;52.036;5.906;2023-02-26T12:53:21;7.00;78.70
42031;DHT22;27709;52.036;5.906;2023-02-26T12:56:44;7.00;78.70
42031;DHT22;27709;52.036;5.906;2023-02-26T12:58:59;7.10;79.10
42031;DHT22;27709;52.036;5.906;2023-02-26T13:07:05;7.00;80.00
42031;DHT22;27709;52.036;5.906;2023-02-26T13:17:36;7.20;78.80
42031;DHT22;27709;52.036;5.906;2023-02-26T13:20:15;7.20;79.20
42031;DHT22;27709;52.036;5.906;2023-02-26T13:22:58;7.10;78.80
42031;DHT22;27709;52.036;5.906;2023-02-26T13:25:41;7.10;77.60
42031;DHT22;27709;52.036;5.906;2023-02-26T13:28:43;7.10;78.60
42031;DHT22;27709;52.036;5.906;2023-02-26T13:31:41;7.20;76.10
42031;DHT22;27709;52.036;5.906;2023-02-26T13:34:16;7.10;74.40
42031;DHT22;27709;52.036;5.906;2023-02-26T13:36:44;7.00;72.20
42031;DHT22;27709;52.036;5.906;2023-02-26T13:39:31;6.90;71.80
42031;DHT22;27709;52.036;5.906;2023-02-26T13:50:15;6.50;75.40
42031;DHT22;27709;52.036;5.906;2023-02-26T13:53:00;6.50;75.90
42031;DHT22;27709;52.036;5.906;2023-02-26T13:55:42;6.50;74.50
42031;DHT22;27709;52.036;5.906;2023-02-26T13:58:28;6.50;75.60
42031;DHT22;27709;52.036;5.906;2023-02-26T14:01:15;6.50;74.60
42031;DHT22;27709;52.036;5.906;2023-02-26T14:06:43;6.40;74.40
42031;DHT22;27709;52.036;5.906;2023-02-26T14:12:00;6.40;75.20
42031;DHT22;27709;52.036;5.906;2023-02-26T14:22:22;6.40;75.60
42031;DHT22;27709;52.036;5.906;2023-02-26T14:24:56;6.40;76.40
42031;DHT22;27709;52.036;5.906;2023-02-26T14:27:42;6.40;77.60
42031;DHT22;27709;52.036;5.906;2023-02-26T14:35:28;6.50;78.00
42031;DHT22;27709;52.036;5.906;2023-02-26T14:38:22;6.50;78.80
42031;DHT22;27709;52.036;5.906;2023-02-26T14:41:35;6.50;77.80
42031;DHT22;27709;52.036;5.906;2023-02-26T14:43:51;6.50;77.70
42031;DHT22;27709;52.036;5.906;2023-02-26T14:46:19;6.40;79.10
42031;DHT22;27709;52.036;5.906;2023-02-26T14:48:48;6.40;78.20
42031;DHT22;27709;52.036;5.906;2023-02-26T14:54:04;6.40;78.80
42031;DHT22;27709;52.036;5.906;2023-02-26T15:05:19;6.30;78.40
42031;DHT22;27709;52.036;5.906;2023-02-26T15:10:58;6.30;78.30
42031;DHT22;27709;52.036;5.906;2023-02-26T15:16:48;6.20;78.50
42031;DHT22;27709;52.036;5.906;2023-02-26T15:19:43;6.20;79.90
42031;DHT22;27709;52.036;5.906;2023-02-26T15:24:47;6.20;80.60
42031;DHT22;27709;52.036;5.906;2023-02-26T15:27:15;6.10;79.20
42031;DHT22;27709;52.036;5.906;2023-02-26T15:29:42;6.10;80.00
42031;DHT22;27709;52.036;5.906;2023-02-26T15:32:24;6.00;80.40
42031;DHT22;27709;52.036;5.906;2023-02-26T15:37:22;6.00;82.80
42031;DHT22;27709;52.036;5.906;2023-02-26T15:39:49;6.00;84.00
42031;DHT22;27709;52.036;5.906;2023-02-26T15:42:16;6.00;81.60
42031;DHT22;27709;52.036;5.906;2023-02-26T15:44:44;5.90;81.10
42031;DHT22;27709;52.036;5.906;2023-02-26T15:47:10;5.90;81.80
42031;DHT22;27709;52.036;5.906;2023-02-26T15:49:39;5.90;82.10
42031;DHT22;27709;52.036;5.906;2023-02-26T15:52:07;5.90;81.50
42031;DHT22;27709;52.036;5.906;2023-02-26T15:54:45;5.80;81.60
42031;DHT22;27709;52.036;5.906;2023-02-26T15:57:13;5.80;81.70
42031;DHT22;27709;52.036;5.906;2023-02-26T15:59:45;5.80;81.90
42031;DHT22;27709;52.036;5.906;2023-02-26T16:02:18;5.70;82.80
42031;DHT22;27709;52.036;5.906;2023-02-26T16:04:44;5.70;81.60
42031;DHT22;27709;52.036;5.906;2023-02-26T16:07:11;5.60;81.60
42031;DHT22;27709;52.036;5.906;2023-02-26T16:09:55;5.60;81.70
42031;DHT22;27709;52.036;5.906;2023-02-26T16:12:24;5.60;82.30
42031;DHT22;27709;52.036;5.906;2023-02-26T16:15:03;5.50;82.70
42031;DHT22;27709;52.036;5.906;2023-02-26T16:17:33;5.50;83.50
42031;DHT22;27709;52.036;5.906;2023-02-26T16:20:03;5.50;83.10
42031;DHT22;27709;52.036;5.906;2023-02-26T16:25:00;5.40;83.70
42031;DHT22;27709;52.036;5.906;2023-02-26T16:27:27;5.40;84.70
42031;DHT22;27709;52.036;5.906;2023-02-26T16:29:56;5.30;83.90
42031;DHT22;27709;52.036;5.906;2023-02-26T16:32:24;5.30;84.60
42031;DHT22;27709;52.036;5.906;2023-02-26T16:34:53;5.20;85.70
42031;DHT22;27709;52.036;5.906;2023-02-26T16:47:59;5.10;88.50
42031;DHT22;27709;52.036;5.906;2023-02-26T16:50:28;5.00;88.30
42031;DHT22;27709;52.036;5.906;2023-02-26T16:53:00;4.90;88.40
42031;DHT22;27709;52.036;5.906;2023-02-26T16:55:29;4.90;88.40
42031;DHT22;27709;52.036;5.906;2023-02-26T16:57:55;4.90;88.90
42031;DHT22;27709;52.036;5.906;2023-02-26T17:00:23;4.80;89.30
42031;DHT22;27709;52.036;5.906;2023-02-26T17:02:56;4.80;89.70
42031;DHT22;27709;52.036;5.906;2023-02-26T17:05:27;4.80;89.80
42031;DHT22;27709;52.036;5.906;2023-02-26T17:08:07;4.70;90.40
42031;DHT22;27709;52.036;5.906;2023-02-26T17:10:52;4.70;90.60
42031;DHT22;27709;52.036;5.906;2023-02-26T17:13:23;4.70;90.90
42031;DHT22;27709;52.036;5.906;2023-02-26T17:15:49;4.60;91.40
42031;DHT22;27709;52.036;5.906;2023-02-26T17:18:16;4.50;92.00
42031;DHT22;27709;52.036;5.906;2023-02-26T17:20:43;4.40;92.40
42031;DHT22;27709;52.036;5.906;2023-02-26T17:23:12;4.40;92.50
42031;DHT22;27709;52.036;5.906;2023-02-26T17:25:40;4.40;92.80
42031;DHT22;27709;52.036;5.906;2023-02-26T17:28:07;4.40;93.10
42031;DHT22;27709;52.036;5.906;2023-02-26T17:30:34;4.30;93.40
42031;DHT22;27709;52.036;5.906;2023-02-26T17:33:00;4.30;93.90
42031;DHT22;27709;52.036;5.906;2023-02-26T17:35:28;4.20;94.20
42031;DHT22;27709;52.036;5.906;2023-02-26T17:37:56;4.20;94.60
42031;DHT22;27709;52.036;5.906;2023-02-26T17:40:25;4.20;94.90
42031;DHT22;27709;52.036;5.906;2023-02-26T17:42:51;4.10;95.20
42031;DHT22;27709;52.036;5.906;2023-02-26T17:45:17;4.10;95.30
42031;DHT22;27709;52.036;5.906;2023-02-26T17:47:44;4.00;95.50
42031;DHT22;27709;52.036;5.906;2023-02-26T17:52:56;4.00;95.80
42031;DHT22;27709;52.036;5.906;2023-02-26T17:55:22;3.90;96.10
42031;DHT22;27709;52.036;5.906;2023-02-26T17:57:48;3.80;96.30
42031;DHT22;27709;52.036;5.906;2023-02-26T18:00:15;3.80;96.60
42031;DHT22;27709;52.036;5.906;2023-02-26T18:02:40;3.70;96.70
42031;DHT22;27709;52.036;5.906;2023-02-26T18:05:06;3.60;97.10
42031;DHT22;27709;52.036;5.906;2023-02-26T18:07:32;3.60;97.40
42031;DHT22;27709;52.036;5.906;2023-02-26T18:09:58;3.50;97.70
42031;DHT22;27709;52.036;5.906;2023-02-26T18:12:23;3.50;97.90
42031;DHT22;27709;52.036;5.906;2023-02-26T18:14:49;3.40;97.90
42031;DHT22;27709;52.036;5.906;2023-02-26T18:17:19;3.40;98.20
42031;DHT22;27709;52.036;5.906;2023-02-26T18:19:46;3.40;98.50
42031;DHT22;27709;52.036;5.906;2023-02-26T18:22:15;3.30;98.70
42031;DHT22;27709;52.036;5.906;2023-02-26T18:24:41;3.20;98.80
42031;DHT22;27709;52.036;5.906;2023-02-26T18:27:16;3.20;99.10
42031;DHT22;27709;52.036;5.906;2023-02-26T18:29:42;3.20;99.40
42031;DHT22;27709;52.036;5.906;2023-02-26T18:32:13;3.10;99.60
42031;DHT22;27709;52.036;5.906;2023-02-26T18:34:39;3.10;99.50
42031;DHT22;27709;52.036;5.906;2023-02-26T18:37:05;3.10;99.60
42031;DHT22;27709;52.036;5.906;2023-02-26T18:39:31;3.00;99.80
42031;DHT22;27709;52.036;5.906;2023-02-26T18:41:59;3.00;99.90
42031;DHT22;27709;52.036;5.906;2023-02-26T18:44:24;2.90;99.90
42031;DHT22;27709;52.036;5.906;2023-02-26T18:46:52;2.90;99.90